Kilbourn, Iowa
Current Conditions -  °F | °C
As of 4:55 AM on Saturday 25 Oct 2014 (Local Time) from KFFL Reporting Station
NA  
Wind Chill: 50°   Ceiling: NA
Heat Index: 50°   Visibility: NA
Dew Point: 48°   Wind: 5mph
Humidity: 94%   Direction: 300°WNW
Pressure: 29.97"   Gusts: NA
Location:  40.8549°N, 91.9505°W
Report Text: KFFL 250955Z AUTO 30004KT 10/09 A2997 RMK AO2
Loading
Personal Weather Stations






























Interactive Weather Map
Tropical Storm Tracking
New forecast layout! Learn more

10-Day Weather Forecast

Advertisements
Track Severe Weather on mobile